Time,TemperatureF,DewpointF,PressureIn,WindDirection,WindDirectionDegrees,WindSpeedMPH,WindSpeedGustMPH,Humidity,HourlyPrecipIn,Conditions,Clouds,dailyrainin,SolarRadiationWatts/m^2,SoftwareType,DateUTC
2013-08-27 00:22:00,55.0,51.0,-100.00,ENE,73,4.0,7.0,87,0.00,,,0.52,1.000000,,2013-08-27 06:22:00,
2013-08-27 00:32:00,55.0,51.0,-100.00,ENE,73,4.0,7.0,87,0.00,,,0.52,1.000000,,2013-08-27 06:32:00,
2013-08-27 00:42:00,55.0,51.0,-100.00,ENE,73,4.0,7.0,87,0.00,,,0.52,1.000000,,2013-08-27 06:42:00,
2013-08-27 00:52:00,55.0,51.0,-100.00,ENE,73,4.0,7.0,87,0.00,,,0.52,1.000000,,2013-08-27 06:52:00,
2013-08-27 01:21:00,54.0,51.0,-100.00,ENE,76,3.0,5.0,88,0.00,,,0.48,1.000000,,2013-08-27 07:21:00,
2013-08-27 01:32:00,54.0,51.0,-100.00,ENE,76,3.0,5.0,88,0.00,,,0.48,1.000000,,2013-08-27 07:32:00,
2013-08-27 01:42:00,54.0,51.0,-100.00,ENE,76,3.0,5.0,88,0.00,,,0.48,1.000000,,2013-08-27 07:42:00,
2013-08-27 01:52:00,54.0,51.0,-100.00,ENE,76,3.0,5.0,88,0.00,,,0.48,1.000000,,2013-08-27 07:52:00,
2013-08-27 02:22:00,53.0,50.0,-100.00,WSW,247,1.0,6.0,90,0.00,,,0.37,1.000000,,2013-08-27 08:22:00,
2013-08-27 02:33:00,53.0,50.0,-100.00,WSW,247,1.0,6.0,90,0.00,,,0.37,1.000000,,2013-08-27 08:33:00,
2013-08-27 02:42:00,53.0,50.0,-100.00,WSW,247,1.0,6.0,90,0.00,,,0.37,1.000000,,2013-08-27 08:42:00,
2013-08-27 02:52:00,53.0,50.0,-100.00,WSW,247,1.0,6.0,90,0.00,,,0.37,1.000000,,2013-08-27 08:52:00,
2013-08-27 02:54:00,52.0,50.0,-100.00,NNE,30,3.0,4.0,92,0.00,,,0.32,1.000000,,2013-08-27 08:54:00,
2013-08-27 03:21:00,52.0,50.0,-100.00,NNE,30,3.0,4.0,92,0.00,,,0.32,1.000000,,2013-08-27 09:21:00,
2013-08-27 03:35:00,52.0,50.0,-100.00,NNE,30,3.0,4.0,92,0.00,,,0.32,1.000000,,2013-08-27 09:35:00,
2013-08-27 03:43:00,52.0,50.0,-100.00,NNE,30,3.0,4.0,92,0.00,,,0.32,1.000000,,2013-08-27 09:43:00,
2013-08-27 04:25:00,52.0,50.0,-100.00,SW,236,3.0,11.0,93,0.00,,,0.32,1.000000,,2013-08-27 10:25:00,
2013-08-27 04:33:00,52.0,50.0,-100.00,SW,236,3.0,11.0,93,0.00,,,0.32,1.000000,,2013-08-27 10:33:00,
2013-08-27 04:43:00,52.0,50.0,-100.00,SW,236,3.0,11.0,93,0.00,,,0.32,1.000000,,2013-08-27 10:43:00,
2013-08-27 04:53:00,52.0,50.0,-100.00,SW,236,3.0,11.0,93,0.00,,,0.32,1.000000,,2013-08-27 10:53:00,
2013-08-27 05:22:00,54.0,51.0,-100.00,East,80,6.0,11.0,90,0.00,,,0.32,1.000000,,2013-08-27 11:22:00,
2013-08-27 05:33:00,54.0,51.0,-100.00,East,80,6.0,11.0,90,0.00,,,0.32,1.000000,,2013-08-27 11:33:00,
2013-08-27 05:42:00,54.0,51.0,-100.00,East,80,6.0,11.0,90,0.00,,,0.32,1.000000,,2013-08-27 11:42:00,
2013-08-27 05:52:00,54.0,51.0,-100.00,East,80,6.0,11.0,90,0.00,,,0.32,1.000000,,2013-08-27 11:52:00,
2013-08-27 06:21:00,54.0,51.0,-100.00,East,98,3.0,7.0,88,0.00,,,0.31,1.000000,,2013-08-27 12:21:00,
2013-08-27 06:32:00,54.0,51.0,-100.00,East,98,3.0,7.0,88,0.00,,,0.31,1.000000,,2013-08-27 12:32:00,
2013-08-27 06:42:00,54.0,51.0,-100.00,East,98,3.0,7.0,88,0.00,,,0.31,1.000000,,2013-08-27 12:42:00,
2013-08-27 06:52:00,54.0,51.0,-100.00,East,98,3.0,7.0,88,0.00,,,0.31,1.000000,,2013-08-27 12:52:00,
2013-08-27 07:22:00,54.0,50.0,-100.00,ENE,64,3.0,10.0,86,0.00,,,0.29,3.000000,,2013-08-27 13:22:00,
2013-08-27 07:32:00,54.0,50.0,-100.00,ENE,64,3.0,10.0,86,0.00,,,0.29,3.000000,,2013-08-27 13:32:00,
2013-08-27 07:42:00,54.0,50.0,-100.00,ENE,64,3.0,10.0,86,0.00,,,0.29,3.000000,,2013-08-27 13:42:00,
2013-08-27 07:52:00,54.0,50.0,-100.00,ENE,64,3.0,10.0,86,0.00,,,0.29,3.000000,,2013-08-27 13:52:00,
2013-08-27 08:22:00,60.0,53.0,-100.00,WSW,249,0.0,5.0,78,0.00,,,0.28,77.000000,,2013-08-27 14:22:00,
2013-08-27 08:32:00,60.0,53.0,-100.00,WSW,249,0.0,5.0,78,0.00,,,0.28,77.000000,,2013-08-27 14:32:00,
2013-08-27 08:42:00,60.0,53.0,-100.00,WSW,249,0.0,5.0,78,0.00,,,0.28,77.000000,,2013-08-27 14:42:00,
2013-08-27 08:53:00,60.0,53.0,-100.00,WSW,249,0.0,5.0,78,0.00,,,0.28,77.000000,,2013-08-27 14:53:00,
2013-08-27 08:54:00,65.0,52.0,-100.00,East,97,1.0,6.0,63,0.00,,,0.22,277.000000,,2013-08-27 14:54:00,
2013-08-27 09:45:00,65.0,52.0,-100.00,East,97,1.0,6.0,63,0.00,,,0.22,277.000000,,2013-08-27 15:45:00,
2013-08-27 09:54:00,65.0,53.0,-100.00,WSW,253,2.0,9.0,65,0.00,,,0.22,477.000000,,2013-08-27 15:54:00,
2013-08-27 10:28:00,65.0,53.0,-100.00,WSW,253,2.0,9.0,65,0.00,,,0.22,477.000000,,2013-08-27 16:28:00,
2013-08-27 10:35:00,65.0,53.0,-100.00,WSW,253,2.0,9.0,65,0.00,,,0.22,477.000000,,2013-08-27 16:35:00,
2013-08-27 10:46:00,65.0,53.0,-100.00,WSW,253,2.0,9.0,65,0.00,,,0.22,477.000000,,2013-08-27 16:46:00,
2013-08-27 11:23:00,69.0,55.0,-100.00,West,277,3.0,7.0,60,0.00,,,0.22,659.000000,,2013-08-27 17:23:00,
2013-08-27 11:35:00,69.0,55.0,-100.00,West,277,3.0,7.0,60,0.00,,,0.22,659.000000,,2013-08-27 17:35:00,
2013-08-27 11:43:00,69.0,55.0,-100.00,West,277,3.0,7.0,60,0.00,,,0.22,659.000000,,2013-08-27 17:43:00,
2013-08-27 11:52:00,69.0,55.0,-100.00,West,277,3.0,7.0,60,0.00,,,0.22,659.000000,,2013-08-27 17:52:00,
2013-08-27 12:42:00,70.0,55.0,-100.00,West,276,5.0,8.0,59,0.00,,,0.22,745.000000,,2013-08-27 18:42:00,
2013-08-27 12:52:00,70.0,55.0,-100.00,West,276,5.0,8.0,59,0.00,,,0.22,745.000000,,2013-08-27 18:52:00,
2013-08-27 13:22:00,71.0,53.0,-100.00,WNW,291,5.0,11.0,53,0.00,,,0.22,862.000000,,2013-08-27 19:22:00,
2013-08-27 13:32:00,71.0,53.0,-100.00,WNW,291,5.0,11.0,53,0.00,,,0.22,862.000000,,2013-08-27 19:32:00,
2013-08-27 13:42:00,71.0,53.0,-100.00,WNW,291,5.0,11.0,53,0.00,,,0.22,862.000000,,2013-08-27 19:42:00,
2013-08-27 13:52:00,71.0,53.0,-100.00,WNW,291,5.0,11.0,53,0.00,,,0.22,862.000000,,2013-08-27 19:52:00,